Time;durP1;ratioP1;P1;durP2;ratioP2;P2;SDS_P1;SDS_P2;PMS_P1;PMS_P2;Temp;Humidity;BMP_temperature;BMP_pressure;BME280_temperature;BME280_humidity;BME280_pressure;Samples;Min_cycle;Max_cycle;Signal;HPM_P1;HPM_P2
2023/06/04 00:00:03;;;;;;;1.43;1.03;;;21.90;98.60;;;;;;1862535;76;25187;-58
2023/06/04 00:02:52;;;;;;;0.90;0.80;;;21.90;98.60;;;;;;1865647;76;25229;-57
2023/06/04 00:05:41;;;;;;;0.80;0.80;;;21.90;98.60;;;;;;1874238;76;25314;-58
2023/06/04 00:08:31;;;;;;;0.80;0.80;;;21.90;98.60;;;;;;1854560;76;25292;-58
2023/06/04 00:11:20;;;;;;;0.93;0.80;;;21.90;98.60;;;;;;1856025;76;25772;-57
2023/06/04 00:14:09;;;;;;;0.70;0.70;;;21.90;98.60;;;;;;1860864;76;25666;-56
2023/06/04 00:19:36;;;;;;;1.20;0.73;;;21.80;98.50;;;;;;1919532;73;27447;-57
2023/06/04 00:22:25;;;;;;;0.90;0.90;;;21.90;98.90;;;;;;1883190;75;25265;-57
2023/06/04 00:25:13;;;;;;;0.80;0.80;;;21.80;98.50;;;;;;1869845;76;25285;-56
2023/06/04 00:28:02;;;;;;;1.80;0.83;;;21.80;98.50;;;;;;1866566;76;25829;-59
2023/06/04 00:30:51;;;;;;;1.03;0.80;;;21.80;98.60;;;;;;1882234;76;25295;-57
2023/06/04 00:33:39;;;;;;;0.80;0.80;;;21.80;98.50;;;;;;1877079;76;25752;-58
2023/06/04 00:36:29;;;;;;;1.33;0.90;;;21.80;98.50;;;;;;1874498;76;25324;-59
2023/06/04 00:39:18;;;;;;;0.93;0.80;;;21.80;98.50;;;;;;1861696;76;25360;-57
2023/06/04 00:42:07;;;;;;;0.80;0.80;;;21.80;98.50;;;;;;1883133;75;25262;-58
2023/06/04 00:44:57;;;;;;;0.90;0.87;;;21.80;98.40;;;;;;1901032;75;25312;-56
2023/06/04 00:50:26;;;;;;;0.80;0.80;;;21.80;98.50;;;;;;1919234;74;27521;-57
2023/06/04 00:53:15;;;;;;;0.70;0.70;;;21.80;98.50;;;;;;1882218;76;25179;-57
2023/06/04 00:58:42;;;;;;;1.27;0.90;;;21.80;98.40;;;;;;1909254;74;27649;-57
2023/06/04 01:04:16;;;;;;;1.67;0.80;;;21.80;98.50;;;;;;1922999;74;26997;-57
2023/06/04 01:07:08;;;;;;;0.60;0.60;;;21.80;98.40;;;;;;1902792;75;25244;-58
2023/06/04 01:09:58;;;;;;;1.50;0.90;;;21.80;98.50;;;;;;1907780;75;25201;-58
2023/06/04 01:12:47;;;;;;;2.00;0.80;;;21.80;98.40;;;;;;1901025;75;25179;-57
2023/06/04 01:15:36;;;;;;;1.00;0.90;;;21.80;98.40;;;;;;1904146;75;25294;-58
2023/06/04 01:18:28;;;;;;;1.60;0.80;;;21.80;98.40;;;;;;1894490;75;25769;-59
2023/06/04 01:21:18;;;;;;;0.93;0.90;;;21.70;98.00;;;;;;1889141;75;25172;-53
2023/06/04 01:24:09;;;;;;;0.87;0.83;;;21.70;98.40;;;;;;1909738;75;25216;-57
2023/06/04 01:26:59;;;;;;;0.70;0.70;;;21.70;98.40;;;;;;1908050;75;25218;-59
2023/06/04 01:29:49;;;;;;;0.80;0.80;;;21.70;98.40;;;;;;1907021;75;25232;-56
2023/06/04 01:32:38;;;;;;;0.80;0.80;;;21.70;98.40;;;;;;1907667;75;25235;-59
2023/06/04 01:35:28;;;;;;;0.80;0.80;;;21.70;98.40;;;;;;1895245;75;25632;-59
2023/06/04 01:40:57;;;;;;;0.80;0.80;;;21.70;98.40;;;;;;1910322;73;27091;-57
2023/06/04 01:46:30;;;;;;;1.07;0.97;;;21.70;98.40;;;;;;1953895;72;27095;-57
2023/06/04 01:49:20;;;;;;;0.83;0.83;;;21.70;98.40;;;;;;1921883;73;25324;-57
2023/06/04 01:52:10;;;;;;;0.97;0.97;;;21.70;98.40;;;;;;1927978;73;25740;-56
2023/06/04 01:55:00;;;;;;;1.53;1.00;;;21.70;98.40;;;;;;1949351;72;25314;-57
2023/06/04 01:57:50;;;;;;;0.90;0.90;;;21.70;98.40;;;;;;1938982;72;25828;-56
2023/06/04 02:00:39;;;;;;;0.90;0.90;;;21.70;98.70;;;;;;1942345;72;25280;-56
2023/06/04 02:03:32;;;;;;;0.80;0.80;;;21.70;98.40;;;;;;1935540;73;25637;-56
2023/06/04 02:06:19;;;;;;;0.90;0.90;;;21.70;98.40;;;;;;1936787;72;25691;-56
2023/06/04 02:09:08;;;;;;;1.23;1.07;;;21.70;98.40;;;;;;1935602;72;25183;-56
2023/06/04 02:11:57;;;;;;;1.27;0.83;;;21.70;98.40;;;;;;1934102;72;25293;-56
2023/06/04 02:14:46;;;;;;;1.00;0.90;;;21.70;98.30;;;;;;1935801;73;25864;-57
2023/06/04 02:17:37;;;;;;;0.90;0.90;;;21.70;98.40;;;;;;1898663;75;25822;-58
2023/06/04 02:20:26;;;;;;;0.90;0.90;;;21.60;98.30;;;;;;1940602;72;25342;-58
2023/06/04 02:25:53;;;;;;;0.80;0.80;;;21.60;98.40;;;;;;1937257;74;27427;-57
2023/06/04 02:28:42;;;;;;;0.90;0.90;;;21.60;98.70;;;;;;1910333;75;25238;-57
2023/06/04 02:34:10;;;;;;;0.70;0.70;;;21.60;98.40;;;;;;1939867;72;27101;-57
2023/06/04 02:36:58;;;;;;;0.80;0.80;;;21.60;98.30;;;;;;1915626;73;25746;-59
2023/06/04 02:39:47;;;;;;;0.83;0.80;;;21.60;98.40;;;;;;1916838;73;25737;-58
2023/06/04 02:45:15;;;;;;;1.43;0.90;;;21.60;98.30;;;;;;1930958;72;27172;-57
2023/06/04 02:48:04;;;;;;;1.00;0.90;;;21.60;98.30;;;;;;1897963;75;25730;-58
2023/06/04 02:50:53;;;;;;;1.20;0.93;;;21.60;98.30;;;;;;1893632;75;25157;-56
2023/06/04 02:53:42;;;;;;;1.00;0.90;;;21.60;98.20;;;;;;1897230;75;25171;-57
2023/06/04 02:56:31;;;;;;;0.90;0.90;;;21.60;98.20;;;;;;1880879;75;25278;-58
2023/06/04 02:59:20;;;;;;;1.10;1.00;;;21.60;98.30;;;;;;1889485;75;25729;-56
2023/06/04 03:04:50;;;;;;;1.03;0.90;;;21.60;98.20;;;;;;1929458;72;27010;-57
2023/06/04 03:07:37;;;;;;;0.80;0.80;;;21.60;98.20;;;;;;1883827;75;25300;-57
2023/06/04 03:10:26;;;;;;;0.70;0.70;;;21.60;98.20;;;;;;1883337;75;25326;-57
2023/06/04 03:13:15;;;;;;;1.10;0.90;;;21.60;98.20;;;;;;1880813;75;25766;-56
2023/06/04 03:16:09;;;;;;;2.63;0.90;;;21.60;98.50;;;;;;1886389;75;25236;-57
2023/06/04 03:18:56;;;;;;;1.63;0.90;;;21.60;98.20;;;;;;1892161;75;25269;-55
2023/06/04 03:21:46;;;;;;;1.00;0.90;;;21.60;98.20;;;;;;1897362;75;25232;-57
2023/06/04 03:24:37;;;;;;;0.73;0.73;;;21.60;98.10;;;;;;1897021;75;25839;-58
2023/06/04 03:27:26;;;;;;;0.70;0.70;;;21.60;98.10;;;;;;1896783;75;25178;-57
2023/06/04 03:30:16;;;;;;;0.70;0.70;;;21.60;98.00;;;;;;1881486;75;25251;-57
2023/06/04 03:33:05;;;;;;;1.23;0.93;;;21.60;98.00;;;;;;1882264;75;25562;-58
2023/06/04 03:35:57;;;;;;;0.93;0.83;;;21.60;98.00;;;;;;1908084;75;25663;-58
2023/06/04 03:38:45;;;;;;;0.83;0.83;;;21.60;98.00;;;;;;1888578;75;25244;-57
2023/06/04 03:44:13;;;;;;;0.80;0.80;;;21.60;98.00;;;;;;1910827;73;27089;-57
2023/06/04 03:49:41;;;;;;;0.90;0.90;;;21.60;98.00;;;;;;1915420;74;27021;-56
2023/06/04 03:52:30;;;;;;;0.83;0.83;;;21.60;98.40;;;;;;1879678;76;25253;-57
2023/06/04 03:55:19;;;;;;;0.60;0.60;;;21.60;97.90;;;;;;1882940;76;25551;-58
2023/06/04 03:58:09;;;;;;;0.80;0.80;;;21.60;97.90;;;;;;1869734;76;25770;-58
2023/06/04 04:00:58;;;;;;;0.77;0.77;;;21.70;97.90;;;;;;1871231;76;25254;-58
2023/06/04 04:03:48;;;;;;;1.00;1.00;;;21.70;97.90;;;;;;1869430;74;25276;-59
2023/06/04 04:06:37;;;;;;;0.93;0.70;;;21.70;97.80;;;;;;1857930;76;25197;-57
2023/06/04 04:09:27;;;;;;;0.70;0.70;;;21.70;97.90;;;;;;1878530;76;25644;-58
2023/06/04 04:12:16;;;;;;;0.70;0.70;;;21.70;97.80;;;;;;1878390;76;25738;-57
2023/06/04 04:15:05;;;;;;;0.63;0.63;;;21.70;97.80;;;;;;1875083;76;25226;-59
2023/06/04 04:17:55;;;;;;;0.60;0.60;;;21.70;97.70;;;;;;1874501;76;25267;-56
2023/06/04 04:20:45;;;;;;;1.03;0.80;;;21.70;97.70;;;;;;1873117;76;25253;-53
2023/06/04 04:23:34;;;;;;;0.60;0.60;;;21.70;97.60;;;;;;1881395;75;25246;-57
2023/06/04 04:29:01;;;;;;;0.70;0.70;;;21.70;97.50;;;;;;1934508;74;27017;-57
2023/06/04 04:31:50;;;;;;;0.80;0.80;;;21.70;97.30;;;;;;1902503;74;25308;-57
2023/06/04 04:34:43;;;;;;;0.60;0.60;;;21.70;97.40;;;;;;1896775;75;25718;-57
2023/06/04 04:37:31;;;;;;;0.70;0.70;;;21.80;97.40;;;;;;1860419;76;25318;-56
2023/06/04 04:40:21;;;;;;;0.80;0.80;;;21.80;97.30;;;;;;1896286;75;25238;-57
2023/06/04 04:43:10;;;;;;;0.70;0.67;;;21.80;97.40;;;;;;1900979;74;25305;-58
2023/06/04 04:48:38;;;;;;;0.50;0.50;;;21.80;97.30;;;;;;2017197;69;26952;-57
2023/06/04 04:51:27;;;;;;;0.70;0.70;;;21.80;97.30;;;;;;1914006;75;25219;-57
2023/06/04 04:54:16;;;;;;;0.60;0.60;;;21.90;97.40;;;;;;1963373;72;25285;-56
2023/06/04 04:57:07;;;;;;;0.60;0.60;;;21.80;97.20;;;;;;1960492;72;25222;-57
2023/06/04 04:59:56;;;;;;;0.60;0.60;;;21.80;97.30;;;;;;1961931;72;25704;-56
2023/06/04 05:02:45;;;;;;;0.80;0.80;;;21.90;97.70;;;;;;1960850;72;25205;-58
2023/06/04 05:10:52;;;;;;;0.73;0.70;;;21.90;97.40;;;;;;1930574;72;27090;-58
2023/06/04 05:13:41;;;;;;;0.70;0.70;;;21.90;97.40;;;;;;1896163;75;25230;-57
2023/06/04 05:16:30;;;;;;;0.67;0.67;;;21.90;97.40;;;;;;1904781;75;25300;-59
2023/06/04 05:19:20;;;;;;;0.60;0.60;;;21.90;97.30;;;;;;1913952;74;25165;-57
2023/06/04 05:24:46;;;;;;;0.60;0.60;;;21.90;97.40;;;;;;1926979;72;27565;-57
2023/06/04 05:27:35;;;;;;;0.53;0.53;;;21.90;97.30;;;;;;1895982;75;25252;-58
2023/06/04 05:30:25;;;;;;;0.60;0.60;;;21.90;97.40;;;;;;1908893;75;25318;-58
2023/06/04 05:33:18;;;;;;;0.60;0.60;;;22.00;97.40;;;;;;1882209;75;25227;-59
2023/06/04 05:36:07;;;;;;;0.50;0.50;;;22.00;97.40;;;;;;1902261;75;25397;-59
2023/06/04 05:38:57;;;;;;;0.47;0.47;;;22.00;97.40;;;;;;1896123;75;25186;-57
2023/06/04 05:41:46;;;;;;;1.60;0.60;;;22.00;97.40;;;;;;1889225;75;25292;-59
2023/06/04 05:47:13;;;;;;;0.50;0.50;;;22.00;97.40;;;;;;1932937;74;27053;-56
2023/06/04 05:50:02;;;;;;;0.40;0.40;;;22.00;97.30;;;;;;1903612;75;25285;-56
2023/06/04 05:52:51;;;;;;;0.53;0.53;;;22.00;97.40;;;;;;1905422;75;25220;-59
2023/06/04 05:55:39;;;;;;;0.50;0.50;;;22.10;97.40;;;;;;1897877;75;25681;-58
2023/06/04 05:58:28;;;;;;;0.57;0.57;;;22.00;97.30;;;;;;1880779;75;25187;-57
2023/06/04 06:01:17;;;;;;;0.50;0.50;;;22.10;97.30;;;;;;1894198;75;25173;-58
2023/06/04 06:04:06;;;;;;;0.60;0.60;;;22.00;97.30;;;;;;1898207;75;25716;-54
2023/06/04 06:06:56;;;;;;;0.60;0.60;;;22.00;97.40;;;;;;1888675;75;25308;-59
2023/06/04 06:09:46;;;;;;;0.40;0.40;;;22.10;97.40;;;;;;1899460;75;25348;-57
2023/06/04 06:12:35;;;;;;;0.60;0.60;;;22.00;97.40;;;;;;1903044;75;25266;-58
2023/06/04 06:15:24;;;;;;;0.60;0.60;;;22.10;97.40;;;;;;1901915;75;25256;-57
2023/06/04 06:18:13;;;;;;;0.73;0.60;;;22.10;97.40;;;;;;1900025;75;25817;-57
2023/06/04 06:21:02;;;;;;;0.50;0.50;;;22.10;97.40;;;;;;1896851;75;25270;-58
2023/06/04 06:23:51;;;;;;;0.50;0.50;;;22.10;97.40;;;;;;1895432;75;25288;-58
2023/06/04 06:26:39;;;;;;;0.97;0.57;;;22.10;97.40;;;;;;1891693;75;25187;-58
2023/06/04 06:32:07;;;;;;;0.50;0.50;;;22.10;97.60;;;;;;1919614;72;26994;-57
2023/06/04 06:34:56;;;;;;;0.60;0.60;;;22.10;97.40;;;;;;1905376;75;25175;-57
2023/06/04 06:37:45;;;;;;;0.60;0.60;;;22.10;97.40;;;;;;1896122;75;25256;-58
2023/06/04 06:40:34;;;;;;;0.60;0.60;;;22.10;97.40;;;;;;1903055;75;25257;-59
2023/06/04 06:43:22;;;;;;;0.40;0.40;;;22.10;97.40;;;;;;1883383;75;25741;-59
2023/06/04 06:46:11;;;;;;;0.40;0.40;;;22.10;97.40;;;;;;1900809;75;25237;-57
2023/06/04 06:49:00;;;;;;;0.50;0.50;;;22.10;97.40;;;;;;1911517;75;25262;-58
2023/06/04 06:51:49;;;;;;;0.97;0.40;;;22.10;97.40;;;;;;1906627;75;25235;-58
2023/06/04 06:54:37;;;;;;;0.50;0.50;;;22.10;97.40;;;;;;1903277;75;25664;-59
2023/06/04 06:57:27;;;;;;;0.47;0.47;;;22.10;97.40;;;;;;1914254;75;25705;-58
2023/06/04 07:02:55;;;;;;;0.47;0.47;;;22.10;97.40;;;;;;1917487;74;27100;-57
2023/06/04 07:05:44;;;;;;;0.50;0.50;;;22.10;97.40;;;;;;1891205;75;25735;-56
2023/06/04 07:11:12;;;;;;;0.50;0.50;;;22.10;97.40;;;;;;1931586;72;27079;-57
2023/06/04 07:16:39;;;;;;;0.50;0.50;;;22.10;97.40;;;;;;1929724;74;27001;-57
2023/06/04 07:19:28;;;;;;;0.40;0.40;;;22.10;97.40;;;;;;1902247;74;25324;-57
2023/06/04 07:24:55;;;;;;;0.33;0.33;;;22.10;97.30;;;;;;1911689;74;27100;-57
2023/06/04 07:27:44;;;;;;;0.50;0.50;;;22.20;97.40;;;;;;1905345;75;25311;-55
2023/06/04 07:33:13;;;;;;;0.50;0.50;;;22.20;97.30;;;;;;1952476;72;27004;-56
2023/06/04 07:36:02;;;;;;;0.33;0.33;;;22.20;97.40;;;;;;1936851;73;25190;-56
2023/06/04 07:41:28;;;;;;;0.40;0.40;;;22.20;97.40;;;;;;1946386;72;27023;-57
2023/06/04 07:44:17;;;;;;;0.50;0.50;;;22.20;97.40;;;;;;1906378;75;25258;-56
2023/06/04 07:47:07;;;;;;;1.07;0.50;;;22.20;97.40;;;;;;1911513;75;25294;-56
2023/06/04 07:49:56;;;;;;;0.47;0.47;;;22.20;97.40;;;;;;1892937;75;26341;-58
2023/06/04 07:52:44;;;;;;;0.37;0.37;;;22.20;97.40;;;;;;1896154;75;25322;-57
2023/06/04 07:55:33;;;;;;;0.40;0.40;;;22.20;97.30;;;;;;1894810;75;25692;-58
2023/06/04 07:58:22;;;;;;;0.50;0.50;;;22.20;97.30;;;;;;1890769;75;25176;-58
2023/06/04 08:01:11;;;;;;;0.33;0.33;;;22.20;97.30;;;;;;1896005;75;25240;-56
2023/06/04 08:04:00;;;;;;;0.30;0.30;;;22.20;97.30;;;;;;1885684;75;25234;-57
2023/06/04 08:06:49;;;;;;;0.50;0.50;;;22.20;97.30;;;;;;1885846;75;25247;-58
2023/06/04 08:09:38;;;;;;;0.53;0.53;;;22.30;97.30;;;;;;1891613;75;25187;-58
2023/06/04 08:12:27;;;;;;;0.30;0.30;;;22.30;97.30;;;;;;1899253;75;25272;-56
2023/06/04 08:15:16;;;;;;;0.37;0.37;;;22.30;97.30;;;;;;1890129;75;25235;-58
2023/06/04 08:18:05;;;;;;;0.40;0.40;;;22.30;97.30;;;;;;1905606;75;25786;-59
2023/06/04 08:23:32;;;;;;;0.50;0.50;;;22.30;97.30;;;;;;1925660;74;27069;-58
2023/06/04 08:26:20;;;;;;;0.30;0.30;;;22.30;97.30;;;;;;1884877;75;25318;-58
2023/06/04 08:29:10;;;;;;;0.40;0.40;;;22.30;97.30;;;;;;1888515;75;25305;-59
2023/06/04 08:31:58;;;;;;;0.40;0.40;;;22.30;97.30;;;;;;1909305;75;25265;-58
2023/06/04 08:34:47;;;;;;;0.40;0.40;;;22.30;97.30;;;;;;1891964;75;25332;-57
2023/06/04 08:37:36;;;;;;;0.30;0.30;;;22.30;97.30;;;;;;1907628;75;25651;-58
2023/06/04 08:40:25;;;;;;;0.40;0.40;;;22.30;97.30;;;;;;1910604;74;25242;-57
2023/06/04 08:43:15;;;;;;;0.30;0.30;;;22.30;97.30;;;;;;1911487;73;25332;-59
2023/06/04 08:46:08;;;;;;;0.37;0.37;;;22.30;97.40;;;;;;1896123;75;25208;-57
2023/06/04 08:48:57;;;;;;;0.40;0.40;;;22.30;97.30;;;;;;1880108;75;25347;-59
2023/06/04 08:51:46;;;;;;;0.30;0.30;;;22.30;97.30;;;;;;1897947;75;25253;-57
2023/06/04 08:54:36;;;;;;;0.40;0.40;;;22.30;97.30;;;;;;1903386;75;25239;-59
2023/06/04 08:57:24;;;;;;;0.47;0.47;;;22.30;97.30;;;;;;1904649;75;25278;-58
2023/06/04 09:02:53;;;;;;;0.40;0.40;;;22.30;97.20;;;;;;1940270;72;27100;-57
2023/06/04 09:05:47;;;;;;;0.50;0.50;;;22.30;97.30;;;;;;1903085;75;25182;-57
2023/06/04 09:08:36;;;;;;;0.37;0.37;;;22.30;97.20;;;;;;1904489;75;25299;-58
2023/06/04 09:11:27;;;;;;;0.40;0.40;;;22.30;97.30;;;;;;1885678;75;25748;-58
2023/06/04 09:14:17;;;;;;;0.40;0.40;;;22.40;97.30;;;;;;1891712;75;25344;-58
2023/06/04 09:17:06;;;;;;;0.40;0.40;;;22.40;97.30;;;;;;1896291;75;25302;-58
2023/06/04 09:19:55;;;;;;;0.40;0.40;;;22.40;97.30;;;;;;1909893;74;25191;-58
2023/06/04 09:22:44;;;;;;;0.33;0.33;;;22.40;97.20;;;;;;1907043;75;25232;-57
2023/06/04 09:25:33;;;;;;;0.50;0.50;;;22.40;97.20;;;;;;1901920;75;25965;-57
2023/06/04 09:28:23;;;;;;;0.30;0.30;;;22.40;97.30;;;;;;1907838;75;25182;-57
2023/06/04 09:31:15;;;;;;;0.50;0.50;;;22.40;97.20;;;;;;1904655;75;25171;-57
2023/06/04 09:34:05;;;;;;;0.30;0.30;;;22.40;97.20;;;;;;1895570;75;25176;-58
2023/06/04 09:36:54;;;;;;;0.40;0.40;;;22.40;97.20;;;;;;1904393;73;25273;-57
2023/06/04 09:39:43;;;;;;;0.30;0.30;;;22.40;97.20;;;;;;1910158;75;25249;-60
2023/06/04 09:42:33;;;;;;;0.27;0.27;;;22.40;97.30;;;;;;1899315;74;25221;-56
2023/06/04 09:48:10;;;;;;;0.40;0.40;;;22.40;97.20;;;;;;1950068;72;26921;-57
2023/06/04 09:53:38;;;;;;;0.37;0.37;;;22.40;97.60;;;;;;1942766;72;26944;-58
2023/06/04 09:56:27;;;;;;;0.40;0.40;;;22.40;97.20;;;;;;1936022;73;25269;-57
2023/06/04 09:59:17;;;;;;;0.30;0.30;;;22.40;97.10;;;;;;1916159;73;25185;-60
2023/06/04 10:02:09;;;;;;;0.40;0.40;;;22.40;97.10;;;;;;1918393;73;25798;-58
2023/06/04 10:05:00;;;;;;;0.30;0.30;;;22.40;97.20;;;;;;1914896;73;26711;-58
2023/06/04 10:07:50;;;;;;;0.30;0.30;;;22.40;97.10;;;;;;1922018;73;25326;-57
2023/06/04 10:10:41;;;;;;;0.43;0.43;;;22.40;97.10;;;;;;1929728;73;25232;-58
2023/06/04 10:13:32;;;;;;;0.40;0.40;;;22.40;97.10;;;;;;1917447;73;25656;-57
2023/06/04 10:16:23;;;;;;;0.50;0.50;;;22.40;97.10;;;;;;1927107;73;25653;-59
2023/06/04 10:19:12;;;;;;;0.30;0.30;;;22.40;97.10;;;;;;1928047;73;25168;-59
2023/06/04 10:22:01;;;;;;;0.40;0.40;;;22.40;97.10;;;;;;1929023;73;25828;-57
2023/06/04 10:24:50;;;;;;;0.50;0.50;;;22.40;97.20;;;;;;1921617;73;26188;-58
2023/06/04 10:27:40;;;;;;;0.40;0.40;;;22.50;97.20;;;;;;1933305;73;25757;-58
2023/06/04 10:30:32;;;;;;;0.27;0.27;;;22.50;97.10;;;;;;1917489;73;25833;-56
2023/06/04 10:33:23;;;;;;;0.20;0.20;;;22.50;97.10;;;;;;1916148;73;25262;-59
2023/06/04 10:38:57;;;;;;;0.20;0.20;;;22.50;97.20;;;;;;1933639;72;27022;-56
2023/06/04 10:41:46;;;;;;;0.40;0.40;;;22.50;97.10;;;;;;1908567;74;25212;-57
2023/06/04 10:47:26;;;;;;;0.30;0.30;;;22.50;97.10;;;;;;1905990;74;27524;-57
2023/06/04 10:50:16;;;;;;;0.30;0.30;;;22.50;97.50;;;;;;1911993;75;25226;-58
2023/06/04 10:53:05;;;;;;;0.43;0.43;;;22.50;97.00;;;;;;1907509;75;25371;-58
2023/06/04 10:55:54;;;;;;;0.27;0.27;;;22.60;97.10;;;;;;1888917;74;26125;-58
2023/06/04 10:58:43;;;;;;;0.30;0.30;;;22.60;97.00;;;;;;1904777;75;25190;-58
2023/06/04 11:01:32;;;;;;;0.50;0.50;;;22.60;97.00;;;;;;1905353;75;25281;-59
2023/06/04 11:04:22;;;;;;;0.40;0.40;;;22.60;97.00;;;;;;1898575;75;25334;-58
2023/06/04 11:09:51;;;;;;;0.30;0.30;;;22.60;97.00;;;;;;1918757;74;27016;-58
2023/06/04 11:12:47;;;;;;;0.30;0.30;;;22.60;97.10;;;;;;1874747;76;25215;-58
2023/06/04 11:15:43;;;;;;;0.30;0.30;;;22.60;97.10;;;;;;1866440;76;25316;-58
2023/06/04 11:21:11;;;;;;;0.30;0.30;;;22.60;97.10;;;;;;1915974;73;27119;-58
2023/06/04 11:24:01;;;;;;;0.40;0.40;;;22.60;97.00;;;;;;1866878;75;25767;-59
2023/06/04 11:26:50;;;;;;;0.40;0.40;;;22.60;97.00;;;;;;1871236;76;25250;-57
2023/06/04 11:29:39;;;;;;;0.30;0.30;;;22.60;97.10;;;;;;1873933;76;25272;-59
2023/06/04 11:32:28;;;;;;;0.30;0.30;;;22.60;97.10;;;;;;1868426;76;25225;-60
2023/06/04 11:35:17;;;;;;;0.37;0.37;;;22.60;97.10;;;;;;1864199;76;25250;-56
2023/06/04 11:38:05;;;;;;;0.30;0.30;;;22.60;97.10;;;;;;1867065;76;26490;-57
2023/06/04 11:41:00;;;;;;;0.43;0.43;;;22.60;97.20;;;;;;1863445;76;25762;-57
2023/06/04 11:43:51;;;;;;;0.30;0.30;;;22.60;97.20;;;;;;1883457;75;26522;-58
2023/06/04 11:46:43;;;;;;;0.40;0.40;;;22.60;97.40;;;;;;1879781;75;25233;-58
2023/06/04 11:49:32;;;;;;;0.30;0.30;;;22.60;97.20;;;;;;1883382;75;25270;-57
2023/06/04 11:52:22;;;;;;;0.33;0.33;;;22.60;97.30;;;;;;1887226;75;25291;-58
2023/06/04 11:55:12;;;;;;;0.30;0.30;;;22.60;97.20;;;;;;1890081;75;25363;-60
2023/06/04 11:58:01;;;;;;;0.33;0.33;;;22.60;97.20;;;;;;1884290;75;25550;-59
2023/06/04 12:03:39;;;;;;;0.43;0.30;;;22.60;97.20;;;;;;1937144;72;27491;-57
2023/06/04 12:09:07;;;;;;;0.30;0.30;;;22.70;97.30;;;;;;1947972;72;26936;-57
2023/06/04 12:12:01;;;;;;;0.40;0.40;;;22.70;97.20;;;;;;1924165;73;25543;-58
2023/06/04 12:14:58;;;;;;;0.30;0.30;;;22.70;97.20;;;;;;1916409;73;25245;-58
2023/06/04 12:17:52;;;;;;;0.40;0.40;;;22.70;97.20;;;;;;1923411;73;25207;-59
2023/06/04 12:20:42;;;;;;;0.40;0.40;;;22.70;97.30;;;;;;1916035;73;25193;-57
2023/06/04 12:23:31;;;;;;;0.40;0.40;;;22.70;97.20;;;;;;1917937;73;26138;-57
2023/06/04 12:26:29;;;;;;;0.30;0.30;;;22.70;97.20;;;;;;1916200;75;25684;-59
2023/06/04 12:29:20;;;;;;;0.37;0.37;;;22.70;97.30;;;;;;1931663;73;25264;-57
2023/06/04 12:32:11;;;;;;;0.27;0.27;;;22.70;97.30;;;;;;1919349;73;25354;-58
2023/06/04 12:34:59;;;;;;;0.40;0.40;;;22.70;97.30;;;;;;1917255;73;25300;-57
2023/06/04 12:37:48;;;;;;;0.30;0.30;;;22.70;97.30;;;;;;1917065;73;25285;-58
2023/06/04 12:40:37;;;;;;;0.47;0.47;;;22.70;97.30;;;;;;1916246;75;25194;-60
2023/06/04 12:43:26;;;;;;;0.40;0.40;;;22.70;97.30;;;;;;1907290;74;25356;-58
2023/06/04 12:48:54;;;;;;;0.50;0.50;;;22.70;97.30;;;;;;1937639;72;27528;-58
2023/06/04 12:54:21;;;;;;;0.30;0.30;;;22.70;97.30;;;;;;1940297;72;27022;-58
2023/06/04 12:57:10;;;;;;;0.37;0.30;;;22.70;97.30;;;;;;1898287;75;25645;-58
2023/06/04 12:59:58;;;;;;;0.50;0.50;;;22.70;97.30;;;;;;1912068;75;25728;-57
2023/06/04 13:02:48;;;;;;;0.50;0.50;;;22.70;97.40;;;;;;1911843;74;25272;-59
2023/06/04 13:05:37;;;;;;;0.30;0.30;;;22.70;97.30;;;;;;1897024;75;25243;-57
2023/06/04 13:08:26;;;;;;;0.43;0.43;;;22.70;97.30;;;;;;1911868;75;25250;-59
2023/06/04 13:11:15;;;;;;;0.57;0.57;;;22.80;97.40;;;;;;1892794;75;25733;-58
2023/06/04 13:14:04;;;;;;;0.37;0.37;;;22.70;97.30;;;;;;1900913;75;25245;-58
2023/06/04 13:16:53;;;;;;;0.40;0.40;;;22.80;97.40;;;;;;1897529;75;25584;-56
2023/06/04 13:19:41;;;;;;;0.40;0.40;;;22.70;97.40;;;;;;1902332;74;25262;-58
2023/06/04 13:25:10;;;;;;;0.30;0.30;;;22.80;97.40;;;;;;1946608;72;26994;-57
2023/06/04 13:27:59;;;;;;;0.40;0.40;;;22.80;97.40;;;;;;1914220;73;25326;-57
2023/06/04 13:33:27;;;;;;;0.50;0.50;;;22.80;97.40;;;;;;1930083;73;27018;-57
2023/06/04 13:36:17;;;;;;;0.20;0.20;;;22.80;97.40;;;;;;1913761;75;25193;-56
2023/06/04 13:39:05;;;;;;;0.30;0.30;;;22.80;97.40;;;;;;1915619;75;25575;-57
2023/06/04 13:41:55;;;;;;;0.30;0.30;;;22.80;97.40;;;;;;1907942;75;25273;-58
2023/06/04 13:44:44;;;;;;;0.40;0.40;;;22.80;97.40;;;;;;1883983;75;25235;-59
2023/06/04 13:47:32;;;;;;;0.33;0.33;;;22.80;97.40;;;;;;1884453;75;25255;-58
2023/06/04 13:53:01;;;;;;;0.40;0.40;;;22.80;97.40;;;;;;1923221;74;27081;-58
2023/06/04 13:55:57;;;;;;;0.30;0.30;;;22.80;97.40;;;;;;1909587;75;25252;-60
2023/06/04 13:58:41;;;;;;;0.40;0.40;;;22.80;97.40;;;;;;1898630;75;25738;-60
2023/06/04 14:01:30;;;;;;;0.40;0.40;;;22.80;97.40;;;;;;1905393;75;25171;-60
2023/06/04 14:04:19;;;;;;;0.37;0.37;;;22.80;97.40;;;;;;1896737;75;26475;-60
2023/06/04 14:07:09;;;;;;;0.60;0.60;;;22.80;97.40;;;;;;1903407;75;25290;-57
2023/06/04 14:12:35;;;;;;;0.50;0.50;;;22.80;97.40;;;;;;1922971;74;27111;-58
2023/06/04 14:15:24;;;;;;;0.40;0.40;;;22.80;97.40;;;;;;1871045;76;25251;-58
2023/06/04 14:18:14;;;;;;;0.33;0.33;;;22.80;97.40;;;;;;1876296;76;25316;-59
2023/06/04 14:21:03;;;;;;;0.40;0.40;;;22.80;97.40;;;;;;1880697;74;25186;-57
2023/06/04 14:23:53;;;;;;;0.40;0.40;;;22.80;97.40;;;;;;1863782;74;25722;-57
2023/06/04 14:26:41;;;;;;;0.50;0.50;;;22.80;97.80;;;;;;1881862;75;25327;-59
2023/06/04 14:29:30;;;;;;;0.60;0.60;;;22.80;97.40;;;;;;1868076;76;25308;-56
2023/06/04 14:32:19;;;;;;;0.40;0.40;;;22.90;97.50;;;;;;1869020;76;26276;-58
2023/06/04 14:35:09;;;;;;;0.70;0.70;;;22.80;97.50;;;;;;1862227;76;25228;-57
2023/06/04 14:37:58;;;;;;;0.40;0.40;;;22.80;97.50;;;;;;1881800;76;25261;-57
2023/06/04 14:40:47;;;;;;;0.40;0.40;;;22.80;97.50;;;;;;1879674;76;25240;-59
2023/06/04 14:43:37;;;;;;;0.40;0.40;;;22.80;97.50;;;;;;1898786;74;25705;-58
2023/06/04 14:46:26;;;;;;;0.47;0.47;;;22.80;97.50;;;;;;1898740;75;25324;-56
2023/06/04 14:51:53;;;;;;;0.53;0.53;;;22.80;97.50;;;;;;1932222;72;27200;-56
2023/06/04 14:54:42;;;;;;;0.40;0.40;;;22.90;97.50;;;;;;1876763;75;25304;-58
2023/06/04 14:57:30;;;;;;;0.40;0.40;;;22.80;97.50;;;;;;1876485;75;25238;-59
2023/06/04 15:00:20;;;;;;;0.60;0.60;;;22.80;97.40;;;;;;1894313;75;25233;-59
2023/06/04 15:03:09;;;;;;;0.60;0.60;;;22.80;97.50;;;;;;1878702;75;25588;-59
2023/06/04 15:05:59;;;;;;;0.40;0.40;;;22.80;97.50;;;;;;1874881;75;25300;-59
2023/06/04 15:08:48;;;;;;;0.40;0.40;;;22.80;97.50;;;;;;1886707;75;25222;-60
2023/06/04 15:11:37;;;;;;;0.50;0.50;;;22.80;97.50;;;;;;1882265;75;25231;-59
2023/06/04 15:14:25;;;;;;;0.50;0.50;;;22.80;97.50;;;;;;1883549;75;25705;-58
2023/06/04 15:17:14;;;;;;;0.50;0.50;;;22.80;97.50;;;;;;1892796;75;25728;-58
2023/06/04 15:20:03;;;;;;;0.43;0.43;;;22.80;97.50;;;;;;1876800;75;25183;-57
2023/06/04 15:22:52;;;;;;;0.60;0.60;;;22.80;97.50;;;;;;1893780;75;25161;-58
2023/06/04 15:25:40;;;;;;;0.40;0.40;;;22.80;97.50;;;;;;1887874;75;25221;-59
2023/06/04 15:28:30;;;;;;;0.50;0.50;;;22.80;97.50;;;;;;1897784;75;25169;-59
2023/06/04 15:31:18;;;;;;;0.50;0.50;;;22.80;97.50;;;;;;1892432;75;25202;-59
2023/06/04 15:36:46;;;;;;;0.50;0.50;;;22.90;97.50;;;;;;1919624;74;27039;-58
2023/06/04 15:39:35;;;;;;;0.50;0.50;;;22.80;97.50;;;;;;1879922;76;25174;-59
2023/06/04 15:42:24;;;;;;;0.40;0.40;;;22.80;97.50;;;;;;1887263;75;25209;-60
2023/06/04 15:45:14;;;;;;;0.40;0.40;;;22.80;97.60;;;;;;1909432;75;25778;-59
2023/06/04 15:48:02;;;;;;;0.57;0.57;;;22.80;97.50;;;;;;1912420;75;25281;-57
2023/06/04 15:50:52;;;;;;;0.40;0.40;;;22.80;97.60;;;;;;1913870;75;25941;-57
2023/06/04 15:53:41;;;;;;;0.50;0.50;;;22.80;97.60;;;;;;1896341;75;25246;-56
2023/06/04 15:56:29;;;;;;;0.40;0.40;;;22.80;97.60;;;;;;1894625;75;25753;-59
2023/06/04 16:02:00;;;;;;;0.40;0.40;;;22.80;97.60;;;;;;1908618;74;27185;-57
2023/06/04 16:04:49;;;;;;;0.50;0.50;;;22.80;97.60;;;;;;1858765;76;25224;-58
2023/06/04 16:07:38;;;;;;;0.50;0.50;;;22.80;97.60;;;;;;1866458;76;25250;-57
2023/06/04 16:10:27;;;;;;;0.40;0.40;;;22.80;97.60;;;;;;1875039;75;26207;-58
2023/06/04 16:15:53;;;;;;;0.40;0.40;;;22.80;97.70;;;;;;1926437;73;27489;-57
2023/06/04 16:18:42;;;;;;;0.50;0.50;;;22.80;97.60;;;;;;1889975;75;25232;-58
2023/06/04 16:21:32;;;;;;;0.50;0.50;;;22.80;97.60;;;;;;1886531;75;25666;-60
2023/06/04 16:24:32;;;;;;;0.30;0.30;;;22.80;97.60;;;;;;1884879;75;26285;-59
2023/06/04 16:27:21;;;;;;;0.40;0.40;;;22.80;97.60;;;;;;1890096;75;25777;-58
2023/06/04 16:30:11;;;;;;;0.60;0.60;;;22.80;97.70;;;;;;1886970;75;25228;-57
2023/06/04 16:33:00;;;;;;;0.40;0.40;;;22.80;97.60;;;;;;1885596;74;25256;-57
2023/06/04 16:35:49;;;;;;;0.40;0.40;;;22.80;97.70;;;;;;1898405;75;25279;-58
2023/06/04 16:38:38;;;;;;;0.40;0.40;;;22.80;97.70;;;;;;1889537;74;25686;-59
2023/06/04 16:41:27;;;;;;;0.40;0.40;;;22.80;97.70;;;;;;1884622;75;25314;-60